Avoca, Texas
Current Conditions -  °F | °C
As of 9:52 AM on Thursday 23 Oct 2014 (Local Time) from KABI Reporting Station
Clear Clear  
Wind Chill: 69°   Ceiling: Unl
Heat Index: 69°   Visibility: 10mi
Dew Point: 56°   Wind: 7mph
Humidity: 63%   Direction: 190°S
Pressure: 30.16"   Gusts: NA
Location:  32.87°N, 99.72°W
Report Text: KABI 231452Z 19006KT 10SM CLR 21/13 A3016 RMK AO2 SLP194 T02060133 53011
Loading
Personal Weather Stations






























Interactive Weather Map New forecast layout! Learn more

10-Day Weather Forecast

Advertisements
Track Severe Weather on mobile